ポッカポカファミリー♪

LUXURY FLIGHT

03-6423-7371

羽田本店:東京都大田区羽田5-11-1
営業時間:10:00~20:00
定休日:毎週 月曜日
セントレア店:愛知県常滑市セントレア1-1
営業時間:10:00~20:00 年中無休

lv

ポッカポカファミリー♪

STAFF BLOG

2019/09/05 ポッカポカファミリー♪

おっはようございまーーーーす

 

そしてお久しぶりでーーーーす

セントレア本日のMETARは…

 

RJGG 050100Z 10007KT 9999 FEW008 BKN023 26/23 Q1018 NOSIG

 

 

先日、三重からお越しのIさまご一家!

 

今回ご体験頂いたのは、お父様とお嬢様! お母様は、オブザーブ席から応援団長です

 

まずは、ダンディーなお父様が挑戦

 

慎重でお優し〜〜〜い性格が離陸操作やノブ操作から伝わってきます!!

きっと奥様やお嬢様にも、お優しいナイスパパなのだと勝手ながら確信しました

 

ええですな〜〜〜

 

フライト中は、最新鋭の旅客機である787のシステムにご興味シンシンッ!のシンシンッ!!

オートパイロットのコマンド1つ1つにも驚きと深い考察をされたところで、体験終了となりました!

 

続いては、お美しいお嬢様がマニュアルフライトに挑戦です!

 

お父様とは打って変わって、操縦席に座るところから、思い切りよくハイテンショーーーーン!!笑

性格は、お母様似なのでしょうか??笑

気持ち良いキレのある操縦で、美しさとは真逆のイケイケサーファーの如く、787を乗りこなします!

 

このギャップにスタッフ一同メロメロでございます!!

 

ランディングもビューティフォ〜〜〜に決めたところで、体験終了となりました!!

 

i%e3%81%95%e3%81%be-%e3%82%b3%e3%83%94%e3%83%bc

 

とにかく仲良しのlさまご一家♪スタッフのココロもポカポカにして頂きました!

 

仲良しご家族・グループで、ワイワイウキウキ盛り上がりたい!楽しみたい!

そのようなご要望にお応えできるよう、我々もワイワイ全力で努めて参ります!

皆さまのご来店を、スタッフ一同、心よりお待ち致しております。

 

この度は、ご一家でのご来店・素敵なお時間を、本当にありがとうございました!

 

「感謝」

TOP